Map

Track Data

SID SEASON NUMBER BASIN SUBBASIN NAME ISO_TIME NATURE LAT LON WMO_WIND WMO_PRES WMO_AGENCY TRACK_TYPE DIST2LAND LANDFALL IFLAG USA_AGENCY USA_ATCF_ID USA_LAT USA_LON USA_RECORD USA_STATUS USA_WIND USA_PRES USA_SSHS USA_R34_NE USA_R34_SE USA_R34_SW USA_R34_NW USA_R50_NE USA_R50_SE USA_R50_SW USA_R50_NW USA_R64_NE USA_R64_SE USA_R64_SW USA_R64_NW USA_POCI USA_ROCI USA_RMW USA_EYE TOKYO_LAT TOKYO_LON TOKYO_GRADE TOKYO_WIND TOKYO_PRES TOKYO_R50_DIR TOKYO_R50_LONG TOKYO_R50_SHORT TOKYO_R30_DIR TOKYO_R30_LONG TOKYO_R30_SHORT TOKYO_LAND CMA_LAT CMA_LON CMA_CAT CMA_WIND CMA_PRES HKO_LAT HKO_LON HKO_CAT HKO_WIND HKO_PRES NEWDELHI_LAT NEWDELHI_LON NEWDELHI_GRADE NEWDELHI_WIND NEWDELHI_PRES NEWDELHI_CI NEWDELHI_DP NEWDELHI_POCI REUNION_LAT REUNION_LON REUNION_TYPE REUNION_WIND REUNION_PRES REUNION_TNUM REUNION_CI REUNION_RMW REUNION_R34_NE REUNION_R34_SE REUNION_R34_SW REUNION_R34_NW REUNION_R50_NE REUNION_R50_SE REUNION_R50_SW REUNION_R50_NW REUNION_R64_NE REUNION_R64_SE REUNION_R64_SW REUNION_R64_NW BOM_LAT BOM_LON BOM_TYPE BOM_WIND BOM_PRES BOM_TNUM BOM_CI BOM_RMW BOM_R34_NE BOM_R34_SE BOM_R34_SW BOM_R34_NW BOM_R50_NE BOM_R50_SE BOM_R50_SW BOM_R50_NW BOM_R64_NE BOM_R64_SE BOM_R64_SW BOM_R64_NW BOM_ROCI BOM_POCI BOM_EYE BOM_POS_METHOD BOM_PRES_METHOD NADI_LAT NADI_LON NADI_CAT NADI_WIND NADI_PRES WELLINGTON_LAT WELLINGTON_LON WELLINGTON_WIND WELLINGTON_PRES DS824_LAT DS824_LON DS824_STAGE DS824_WIND DS824_PRES TD9636_LAT TD9636_LON TD9636_STAGE TD9636_WIND TD9636_PRES TD9635_LAT TD9635_LON TD9635_WIND TD9635_PRES TD9635_ROCI NEUMANN_LAT NEUMANN_LON NEUMANN_CLASS NEUMANN_WIND NEUMANN_PRES MLC_LAT MLC_LON MLC_CLASS MLC_WIND MLC_PRES USA_GUST BOM_GUST BOM_GUST_PER REUNION_GUST REUNION_GUST_PER USA_SEAHGT USA_SEARAD_NE USA_SEARAD_SE USA_SEARAD_SW USA_SEARAD_NW STORM_SPEED STORM_DIR
1933206N31303 1933 32 NA NA NOT_NAMED 1933-07-24 12:00:00 TS 31.0000 -57.0000 25 hurdat_atl main 1571 1569 O_____________ hurdat_atl AL041933 31.0000 -57.0000 TD 25 -1 8 75
1933206N31303 1933 32 NA NA NOT_NAMED 1933-07-24 15:00:00 TS 31.1028 -56.5502 main 1577 1577 P_____________ AL041933 31.1028 -56.5502 TD 27 -1 8 75
1933206N31303 1933 32 NA NA NOT_NAMED 1933-07-24 18:00:00 TS 31.2000 -56.1000 30 hurdat_atl main 1589 1589 O_____________ hurdat_atl AL041933 31.2000 -56.1000 TD 30 -1 8 76
1933206N31303 1933 32 NA NA NOT_NAMED 1933-07-24 21:00:00 TS 31.2923 -55.6498 main 1602 1602 P_____________ AL041933 31.2923 -55.6498 TD 35 0 8 75
1933206N31303 1933 32 NA NA NOT_NAMED 1933-07-25 00:00:00 TS 31.4000 -55.2000 40 hurdat_atl main 1611 1611 O_____________ hurdat_atl AL041933 31.4000 -55.2000 TS 40 0 8 72
1933206N31303 1933 32 NA NA NOT_NAMED 1933-07-25 03:00:00 TS 31.5424 -54.7425 main 1622 1610 P_____________ AL041933 31.5424 -54.7425 TS 42 0 8 69
1933206N31303 1933 32 NA NA NOT_NAMED 1933-07-25 06:00:00 TS 31.7000 -54.3000 45 hurdat_atl main 1613 1609 O_____________ hurdat_atl AL041933 31.7000 -54.3000 TS 45 0 8 71
1933206N31303 1933 32 NA NA NOT_NAMED 1933-07-25 09:00:00 TS 31.7974 -53.8768 main 1615 1608 P_____________ AL041933 31.7974 -53.8768 TS 47 0 7 66
1933206N31303 1933 32 NA NA NOT_NAMED 1933-07-25 12:00:00 TS 32.0000 -53.5000 50 hurdat_atl main 1608 1578 O_____________ hurdat_atl AL041933 32.0000 -53.5000 TS 50 0 9 43
1933206N31303 1933 32 NA NA NOT_NAMED 1933-07-25 15:00:00 TS 32.4399 -53.1776 main 1578 1513 P_____________ AL041933 32.4399 -53.1776 TS 50 0 11 27
1933206N31303 1933 32 NA NA NOT_NAMED 1933-07-25 18:00:00 TS 33.0000 -52.9000 50 hurdat_atl main 1513 1458 O_____________ hurdat_atl AL041933 33.0000 -52.9000 TS 50 0 12 22
1933206N31303 1933 32 NA NA NOT_NAMED 1933-07-25 21:00:00 TS 33.5349 -52.6420 main 1458 1392 P_____________ AL041933 33.5349 -52.6420 TS 47 0 12 21
1933206N31303 1933 32 NA NA NOT_NAMED 1933-07-26 00:00:00 TS 34.1000 -52.4000 45 hurdat_atl main 1392 1326 O_____________ hurdat_atl AL041933 34.1000 -52.4000 TS 45 0 12 20
1933206N31303 1933 32 NA NA NOT_NAMED 1933-07-26 03:00:00 TS 34.6925 -52.1424 main 1327 1261 P_____________ AL041933 34.6925 -52.1424 TS 42 0 13 19
1933206N31303 1933 32 NA NA NOT_NAMED 1933-07-26 06:00:00 TS 35.3000 -51.9000 40 hurdat_atl main 1261 1196 O_____________ hurdat_atl AL041933 35.3000 -51.9000 TS 40 0 13 17
1933206N31303 1933 32 NA NA NOT_NAMED 1933-07-26 09:00:00 TS 35.8923 -51.7066 main 1196 1132 P_____________ AL041933 35.8923 -51.7066 TS 37 0 12 15
1933206N31303 1933 32 NA NA NOT_NAMED 1933-07-26 12:00:00 TS 36.5000 -51.5000 35 hurdat_atl main 1132 1068 O_____________ hurdat_atl AL041933 36.5000 -51.5000 TS 35 0 13 17
1933206N31303 1933 32 NA NA NOT_NAMED 1933-07-26 15:00:00 TS 37.1048 -51.2434 main 1069 996 P_____________ AL041933 37.1048 -51.2434 TS 35 0 14 20
1933206N31303 1933 32 NA NA NOT_NAMED 1933-07-26 18:00:00 TS 37.8000 -50.9000 35 hurdat_atl main 996 916 O_____________ hurdat_atl AL041933 37.8000 -50.9000 TS 35 0 17 22
1933206N31303 1933 32 NA NA NOT_NAMED 1933-07-26 21:00:00 TS 38.6532 -50.4388 main 907 830 P_____________ AL041933 38.6532 -50.4388 TS 32 -1 20 23
1933206N31303 1933 32 NA NA NOT_NAMED 1933-07-27 00:00:00 TS 39.6000 -49.9000 30 hurdat_atl main 822 O_____________ hurdat_atl AL041933 39.6000 -49.9000 TD 30 -1 21 24

About IBTrACS Database

This database is a web-friendly format of International Best Track Archive for Climate Stewardship (IBTrACS), a global best track data archive curated by NOAA dating back to 1842.

Updated: 2021-10-25